Time;durP1;ratioP1;P1;durP2;ratioP2;P2;SDS_P1;SDS_P2;PMS_P1;PMS_P2;Temp;Humidity;BMP_temperature;BMP_pressure;BME280_temperature;BME280_humidity;BME280_pressure;Samples;Min_cycle;Max_cycle;Signal;HPM_P1;HPM_P2
2023/06/10 00:02:19;;;;;;;1.58;1.48;;;25.40;55.80;;;;;;5056483;28;20095;-67
2023/06/10 00:04:47;;;;;;;1.83;1.73;;;25.40;55.80;;;;;;5056272;28;20059;-67
2023/06/10 00:07:14;;;;;;;2.00;1.90;;;25.40;55.80;;;;;;5056188;28;20393;-67
2023/06/10 00:09:41;;;;;;;1.60;1.50;;;25.40;55.80;;;;;;5056399;28;20500;-66
2023/06/10 00:12:09;;;;;;;1.63;1.45;;;25.40;55.90;;;;;;5055674;28;20102;-67
2023/06/10 00:14:39;;;;;;;1.42;1.40;;;25.40;55.90;;;;;;5056326;28;20433;-67
2023/06/10 00:17:08;;;;;;;1.65;1.55;;;25.40;55.90;;;;;;5056043;28;20059;-67
2023/06/10 00:19:40;;;;;;;1.98;1.88;;;25.40;55.90;;;;;;5055840;28;20045;-67
2023/06/10 00:22:10;;;;;;;1.70;1.60;;;25.40;55.90;;;;;;5056054;28;20095;-66
2023/06/10 00:24:38;;;;;;;1.67;1.58;;;25.40;56.00;;;;;;5056447;28;20087;-67
2023/06/10 00:27:06;;;;;;;1.83;1.73;;;25.40;56.00;;;;;;5055513;28;20045;-66
2023/06/10 00:29:34;;;;;;;1.50;1.42;;;25.40;56.00;;;;;;5055865;28;20052;-67
2023/06/10 00:32:02;;;;;;;1.75;1.65;;;25.40;56.00;;;;;;5054735;28;20148;-67
2023/06/10 00:34:30;;;;;;;1.80;1.70;;;25.40;55.90;;;;;;5055270;28;20123;-67
2023/06/10 00:36:57;;;;;;;2.20;2.03;;;25.40;55.90;;;;;;5055801;28;20060;-67
2023/06/10 00:39:24;;;;;;;1.80;1.70;;;25.40;55.90;;;;;;5055639;28;20053;-67
2023/06/10 00:41:51;;;;;;;1.80;1.70;;;25.40;55.90;;;;;;5055607;28;20049;-67
2023/06/10 00:44:18;;;;;;;1.63;1.52;;;25.40;55.90;;;;;;5054172;28;20452;-67
2023/06/10 00:46:46;;;;;;;1.85;1.75;;;25.40;55.80;;;;;;5055614;28;20049;-67
2023/06/10 00:49:13;;;;;;;1.98;1.88;;;25.40;55.80;;;;;;5055786;28;20472;-67
2023/06/10 00:51:40;;;;;;;1.40;1.40;;;25.40;55.80;;;;;;5055175;28;20076;-68
2023/06/10 00:54:08;;;;;;;1.70;1.60;;;25.40;55.80;;;;;;5055003;28;20508;-66
2023/06/10 00:56:36;;;;;;;1.55;1.45;;;25.40;55.80;;;;;;5055745;28;20053;-67
2023/06/10 00:59:03;;;;;;;1.80;1.70;;;25.40;55.80;;;;;;5055317;28;20053;-67
2023/06/10 01:01:32;;;;;;;1.55;1.45;;;25.40;55.80;;;;;;5054841;28;20053;-67
2023/06/10 01:03:59;;;;;;;1.92;1.60;;;25.40;55.80;;;;;;5054096;28;20405;-67
2023/06/10 01:06:50;;;;;;;1.75;1.65;;;25.40;55.80;;;;;;5054951;28;20045;-67
2023/06/10 01:09:51;;;;;;;1.90;1.80;;;25.40;55.80;;;;;;5055093;28;20477;-66
2023/06/10 01:12:42;;;;;;;1.85;1.75;;;25.40;55.80;;;;;;5054823;28;20079;-66
2023/06/10 01:15:09;;;;;;;1.35;1.35;;;25.40;55.80;;;;;;5055048;28;20049;-67
2023/06/10 01:18:01;;;;;;;1.60;1.50;;;25.40;55.90;;;;;;5054498;28;20091;-67
2023/06/10 01:20:31;;;;;;;1.73;1.63;;;25.40;55.90;;;;;;5053984;28;20060;-67
2023/06/10 01:23:00;;;;;;;1.60;1.50;;;25.30;55.90;;;;;;5053804;28;20071;-67
2023/06/10 01:25:28;;;;;;;1.63;1.52;;;25.30;55.90;;;;;;5055083;28;20052;-67
2023/06/10 01:28:17;;;;;;;2.00;1.85;;;25.30;55.90;;;;;;5055230;28;20048;-67
2023/06/10 01:31:16;;;;;;;1.52;1.50;;;25.30;55.90;;;;;;5054355;28;20049;-66
2023/06/10 01:33:47;;;;;;;2.03;1.92;;;25.30;55.90;;;;;;5053805;28;20114;-67
2023/06/10 01:36:17;;;;;;;1.65;1.55;;;25.30;56.00;;;;;;5053793;28;20162;-66
2023/06/10 01:38:47;;;;;;;1.90;1.80;;;25.30;56.00;;;;;;5054861;28;20045;-66
2023/06/10 01:41:17;;;;;;;1.65;1.55;;;25.30;56.00;;;;;;5054688;28;20045;-67
2023/06/10 01:43:45;;;;;;;1.70;1.60;;;25.30;56.00;;;;;;5053300;28;20107;-67
2023/06/10 01:46:13;;;;;;;1.73;1.63;;;25.20;56.00;;;;;;5053214;28;20511;-66
2023/06/10 01:48:42;;;;;;;1.60;1.50;;;25.20;56.00;;;;;;5054988;28;20056;-66
2023/06/10 01:51:09;;;;;;;1.80;1.70;;;25.20;56.00;;;;;;5054399;28;20045;-67
2023/06/10 01:53:36;;;;;;;1.50;1.40;;;25.20;56.00;;;;;;5054173;28;20045;-66
2023/06/10 01:56:03;;;;;;;1.58;1.48;;;25.20;56.00;;;;;;5054333;28;20079;-66
2023/06/10 01:58:31;;;;;;;1.35;1.30;;;25.20;56.00;;;;;;5054021;28;20041;-67
2023/06/10 02:00:58;;;;;;;1.60;1.50;;;25.20;56.00;;;;;;5053678;28;20083;-67
2023/06/10 02:03:25;;;;;;;1.70;1.60;;;25.20;56.00;;;;;;5054379;28;20049;-67
2023/06/10 02:05:52;;;;;;;1.50;1.40;;;25.20;56.00;;;;;;5053128;28;20095;-66
2023/06/10 02:08:20;;;;;;;1.48;1.40;;;25.20;56.00;;;;;;5054177;28;20049;-67
2023/06/10 02:10:47;;;;;;;1.10;1.10;;;25.20;56.00;;;;;;5054046;28;20084;-67
2023/06/10 02:13:14;;;;;;;1.80;1.67;;;25.20;56.00;;;;;;5053895;28;20091;-67
2023/06/10 02:15:41;;;;;;;1.90;1.80;;;25.20;56.00;;;;;;5053795;28;20049;-67
2023/06/10 02:18:09;;;;;;;1.75;1.65;;;25.20;56.00;;;;;;5053610;28;20049;-67
2023/06/10 02:20:37;;;;;;;1.60;1.50;;;25.20;56.00;;;;;;5053579;28;20099;-67
2023/06/10 02:23:04;;;;;;;1.95;1.48;;;25.20;56.00;;;;;;5052333;28;20159;-67
2023/06/10 02:25:31;;;;;;;1.52;1.42;;;25.30;56.00;;;;;;5053989;28;20053;-67
2023/06/10 02:27:58;;;;;;;1.55;1.45;;;25.20;55.90;;;;;;5053704;28;20449;-67
2023/06/10 02:30:26;;;;;;;1.95;1.85;;;25.20;55.90;;;;;;5053438;28;20049;-66
2023/06/10 02:32:53;;;;;;;1.45;1.35;;;25.20;55.90;;;;;;5053775;28;20079;-67
2023/06/10 02:35:20;;;;;;;1.38;1.38;;;25.20;55.90;;;;;;5053445;28;20053;-67
2023/06/10 02:37:47;;;;;;;1.33;1.23;;;25.20;55.80;;;;;;5053869;28;20068;-67
2023/06/10 02:40:14;;;;;;;1.73;1.63;;;25.20;55.80;;;;;;5053069;28;20045;-67
2023/06/10 02:42:42;;;;;;;1.60;1.42;;;25.30;55.90;;;;;;5053327;28;20063;-67
2023/06/10 02:45:09;;;;;;;1.50;1.40;;;25.30;56.00;;;;;;5053435;28;20482;-67
2023/06/10 02:47:39;;;;;;;1.30;1.20;;;25.20;55.80;;;;;;5053445;28;20045;-66
2023/06/10 02:50:07;;;;;;;;;;;25.20;56.40;;;;;;5053179;28;20045;-67
2023/06/10 02:52:34;;;;;;;1.45;1.35;;;25.20;55.90;;;;;;5052384;28;20285;-67
2023/06/10 02:55:01;;;;;;;1.23;1.23;;;25.20;55.90;;;;;;5051852;28;20045;-67
2023/06/10 02:57:28;;;;;;;1.52;1.45;;;25.20;55.90;;;;;;5052886;28;20056;-67
2023/06/10 02:59:55;;;;;;;1.60;1.50;;;25.20;55.90;;;;;;5053130;28;20398;-67
2023/06/10 03:02:28;;;;;;;1.50;1.40;;;25.20;55.90;;;;;;5053517;28;20045;-67
2023/06/10 03:04:55;;;;;;;1.77;1.67;;;25.20;56.00;;;;;;5051642;28;20056;-66
2023/06/10 03:07:23;;;;;;;1.60;1.50;;;25.20;56.00;;;;;;5053185;28;20053;-67
2023/06/10 03:09:50;;;;;;;1.25;1.25;;;25.20;56.00;;;;;;5053160;28;20052;-66
2023/06/10 03:12:17;;;;;;;1.63;1.52;;;25.20;56.00;;;;;;5052928;28;20049;-66
2023/06/10 03:14:44;;;;;;;1.60;1.50;;;25.20;56.50;;;;;;5051061;28;20055;-66
2023/06/10 03:17:12;;;;;;;1.40;1.30;;;25.20;56.00;;;;;;5053470;28;20095;-67
2023/06/10 03:19:39;;;;;;;1.67;1.58;;;25.20;56.00;;;;;;5052658;28;20079;-67
2023/06/10 03:22:14;;;;;;;1.17;1.17;;;25.20;56.00;;;;;;5051870;28;20094;-67
2023/06/10 03:24:43;;;;;;;1.60;1.45;;;25.20;55.90;;;;;;5052837;28;20490;-67
2023/06/10 03:27:10;;;;;;;1.58;1.48;;;25.20;55.90;;;;;;5053031;28;20404;-67
2023/06/10 03:29:38;;;;;;;1.60;1.50;;;25.20;55.90;;;;;;5052038;28;20126;-66
2023/06/10 03:32:06;;;;;;;1.83;1.73;;;25.20;55.90;;;;;;5052388;28;20041;-68
2023/06/10 03:34:33;;;;;;;6.03;2.63;;;25.20;55.90;;;;;;5052109;28;20087;-67
2023/06/10 03:37:00;;;;;;;1.80;1.38;;;25.20;55.90;;;;;;5052444;28;20091;-66
2023/06/10 03:39:29;;;;;;;1.58;1.48;;;25.20;55.90;;;;;;5052474;28;20063;-67
2023/06/10 03:41:57;;;;;;;1.35;1.30;;;25.20;55.80;;;;;;5052763;28;20060;-67
2023/06/10 03:44:27;;;;;;;1.33;1.23;;;25.20;55.80;;;;;;5052571;28;20041;-67
2023/06/10 03:46:56;;;;;;;1.60;1.50;;;25.20;55.70;;;;;;5052456;28;20049;-67
2023/06/10 03:49:26;;;;;;;1.25;1.15;;;25.30;55.70;;;;;;5052786;28;20056;-67
2023/06/10 03:51:53;;;;;;;1.40;1.40;;;25.30;56.20;;;;;;5051286;28;20052;-67
2023/06/10 03:54:21;;;;;;;1.80;1.70;;;25.30;55.60;;;;;;5052176;28;20057;-66
2023/06/10 03:56:48;;;;;;;1.20;1.20;;;25.30;55.60;;;;;;5052441;28;20110;-67
2023/06/10 03:59:15;;;;;;;3.10;1.60;;;25.30;55.50;;;;;;5050982;28;20041;-67
2023/06/10 04:01:43;;;;;;;1.42;1.35;;;25.40;55.50;;;;;;5052432;28;20071;-67
2023/06/10 04:04:16;;;;;;;1.35;1.30;;;25.40;55.50;;;;;;5051960;28;20060;-67
2023/06/10 04:06:44;;;;;;;1.20;1.20;;;25.40;55.40;;;;;;5052255;28;20048;-67
2023/06/10 04:09:12;;;;;;;1.45;1.35;;;25.40;55.40;;;;;;5052273;28;20056;-67
2023/06/10 04:11:39;;;;;;;1.45;1.42;;;25.40;55.30;;;;;;5052540;28;20052;-67
2023/06/10 04:14:07;;;;;;;1.50;1.40;;;25.40;55.30;;;;;;5052307;28;20417;-67
2023/06/10 04:16:35;;;;;;;1.48;1.38;;;25.40;55.20;;;;;;5052193;28;20506;-67
2023/06/10 04:19:02;;;;;;;1.13;1.13;;;25.40;55.20;;;;;;5052209;28;20041;-67
2023/06/10 04:21:29;;;;;;;1.45;1.35;;;25.40;55.10;;;;;;5051781;28;20045;-67
2023/06/10 04:23:57;;;;;;;1.25;1.17;;;25.40;55.10;;;;;;5052096;28;20091;-67
2023/06/10 04:26:25;;;;;;;1.40;1.30;;;25.50;55.10;;;;;;5052121;28;20056;-66
2023/06/10 04:28:52;;;;;;;1.13;1.13;;;25.50;55.10;;;;;;5052508;28;20106;-67
2023/06/10 04:31:20;;;;;;;1.23;1.20;;;25.50;55.10;;;;;;5051669;28;20520;-67
2023/06/10 04:33:47;;;;;;;1.63;1.17;;;25.50;55.10;;;;;;5052015;28;20049;-67
2023/06/10 04:36:14;;;;;;;1.50;1.40;;;25.50;55.00;;;;;;5051758;28;20481;-67
2023/06/10 04:38:42;;;;;;;1.48;1.45;;;25.40;55.00;;;;;;5052009;28;20414;-67
2023/06/10 04:41:09;;;;;;;1.50;1.40;;;25.40;55.10;;;;;;5053361;28;20049;-67
2023/06/10 04:43:36;;;;;;;1.48;1.40;;;25.20;55.30;;;;;;5056080;28;20045;-67
2023/06/10 04:46:04;;;;;;;1.63;1.52;;;25.00;55.50;;;;;;5055116;28;20398;-67
2023/06/10 04:48:35;;;;;;;1.50;1.40;;;24.70;55.10;;;;;;5055682;28;20052;-67
2023/06/10 04:51:03;;;;;;;1.67;1.58;;;24.40;54.60;;;;;;5055357;28;20052;-67
2023/06/10 04:53:30;;;;;;;1.80;1.70;;;24.10;54.10;;;;;;5055051;28;20056;-67
2023/06/10 04:55:57;;;;;;;1.95;1.83;;;23.70;53.90;;;;;;5055566;28;20128;-67
2023/06/10 04:58:25;;;;;;;1.83;1.73;;;23.40;53.80;;;;;;5055667;28;20099;-67
2023/06/10 05:00:52;;;;;;;2.75;1.90;;;23.00;54.30;;;;;;5053998;28;20489;-67
2023/06/10 05:03:19;;;;;;;1.65;1.55;;;22.70;55.20;;;;;;5055656;28;20053;-67
2023/06/10 05:05:46;;;;;;;2.20;2.00;;;22.40;55.90;;;;;;5054428;28;20051;-66
2023/06/10 05:08:13;;;;;;;1.80;1.70;;;22.10;55.90;;;;;;5055486;28;20041;-66
2023/06/10 05:10:40;;;;;;;1.98;1.88;;;21.80;56.50;;;;;;5053489;28;20099;-67
2023/06/10 05:13:08;;;;;;;2.20;2.00;;;21.70;57.80;;;;;;5055425;28;20095;-66
2023/06/10 05:15:35;;;;;;;2.05;1.75;;;21.50;57.50;;;;;;5054883;28;20132;-67
2023/06/10 05:18:03;;;;;;;1.92;1.83;;;21.40;57.30;;;;;;5055252;28;20477;-67
2023/06/10 05:20:30;;;;;;;2.15;2.05;;;21.30;58.20;;;;;;5054780;28;20480;-67
2023/06/10 05:22:58;;;;;;;4.72;2.35;;;21.20;58.70;;;;;;5055291;28;20448;-67
2023/06/10 05:25:27;;;;;;;1.98;1.83;;;21.00;57.80;;;;;;5054882;28;20052;-67
2023/06/10 05:27:54;;;;;;;2.00;1.90;;;20.90;58.40;;;;;;5055166;28;20041;-66
2023/06/10 05:30:21;;;;;;;2.22;1.95;;;20.80;59.30;;;;;;5054986;28;20053;-66
2023/06/10 05:32:48;;;;;;;1.70;1.60;;;20.80;58.60;;;;;;5053735;28;20315;-66
2023/06/10 05:35:16;;;;;;;2.63;2.05;;;20.70;58.50;;;;;;5054485;28;20053;-66
2023/06/10 05:37:44;;;;;;;2.40;2.20;;;20.60;59.40;;;;;;5054976;28;20547;-66
2023/06/10 05:40:11;;;;;;;2.58;2.38;;;20.50;58.80;;;;;;5054749;28;20053;-66
2023/06/10 05:42:38;;;;;;;2.50;2.30;;;20.40;58.50;;;;;;5054207;28;20114;-66
2023/06/10 05:45:06;;;;;;;2.38;2.03;;;20.30;59.60;;;;;;5054515;28;20048;-66
2023/06/10 05:47:34;;;;;;;2.55;2.08;;;20.30;60.00;;;;;;5054438;28;20551;-66
2023/06/10 05:50:02;;;;;;;2.72;2.42;;;20.20;58.80;;;;;;5054258;28;20049;-66
2023/06/10 05:52:29;;;;;;;2.33;2.05;;;20.20;59.10;;;;;;5053878;28;20063;-67
2023/06/10 05:54:56;;;;;;;2.28;2.08;;;20.10;60.20;;;;;;5054615;28;20049;-66
2023/06/10 05:57:23;;;;;;;2.30;2.20;;;20.10;59.60;;;;;;5053109;28;20394;-66
2023/06/10 05:59:50;;;;;;;3.13;2.75;;;20.10;58.90;;;;;;5053207;28;20470;-66
2023/06/10 06:02:17;;;;;;;3.00;2.33;;;20.00;60.30;;;;;;5054216;28;20052;-66
2023/06/10 06:04:45;;;;;;;2.60;2.40;;;20.00;59.80;;;;;;5053794;28;20087;-66
2023/06/10 06:07:12;;;;;;;2.25;2.05;;;19.90;58.60;;;;;;5053917;28;20087;-66
2023/06/10 06:09:39;;;;;;;2.90;2.70;;;19.90;59.60;;;;;;5054460;28;20464;-66
2023/06/10 06:12:08;;;;;;;2.63;2.42;;;19.90;60.50;;;;;;5036332;28;20044;-66
2023/06/10 06:14:39;;;;;;;2.65;2.45;;;19.80;59.90;;;;;;5052753;28;20455;-66
2023/06/10 06:17:07;;;;;;;2.83;2.63;;;19.70;59.10;;;;;;5053896;28;20443;-66
2023/06/10 06:19:34;;;;;;;3.13;2.35;;;19.60;60.60;;;;;;5053528;28;20116;-66
2023/06/10 06:22:02;;;;;;;2.67;2.47;;;19.60;60.20;;;;;;5053479;28;20045;-66
2023/06/10 06:24:29;;;;;;;2.35;2.15;;;19.50;59.60;;;;;;5054159;28;20469;-66
2023/06/10 06:26:56;;;;;;;2.17;2.00;;;19.40;59.60;;;;;;5052816;28;20044;-66
2023/06/10 06:29:24;;;;;;;2.58;2.38;;;19.40;60.10;;;;;;5054095;28;20055;-66
2023/06/10 06:31:51;;;;;;;2.50;2.30;;;19.30;60.80;;;;;;5053249;28;20182;-66
2023/06/10 06:34:18;;;;;;;2.80;2.60;;;19.30;61.20;;;;;;5053501;28;20045;-66
2023/06/10 06:36:45;;;;;;;2.47;2.17;;;19.30;61.20;;;;;;5053274;28;20099;-66
2023/06/10 06:39:12;;;;;;;2.50;2.40;;;19.20;59.80;;;;;;5053158;28;20445;-66
2023/06/10 06:41:39;;;;;;;2.95;2.70;;;19.20;61.10;;;;;;5053897;28;20106;-66
2023/06/10 06:44:07;;;;;;;2.90;2.70;;;19.10;61.30;;;;;;5053517;28;20559;-66
2023/06/10 06:46:34;;;;;;;2.72;2.45;;;19.10;61.90;;;;;;5053126;28;20548;-66
2023/06/10 06:49:01;;;;;;;2.67;2.47;;;19.10;60.90;;;;;;5053518;28;20045;-66
2023/06/10 06:51:28;;;;;;;2.92;2.63;;;19.00;62.10;;;;;;5053359;28;20083;-66
2023/06/10 06:53:58;;;;;;;3.08;2.78;;;19.00;62.40;;;;;;5053050;28;20052;-66
2023/06/10 06:56:27;;;;;;;2.80;2.60;;;19.00;61.00;;;;;;5053140;28;20408;-66
2023/06/10 06:58:55;;;;;;;3.25;2.58;;;19.00;62.30;;;;;;5053473;28;20081;-66
2023/06/10 07:01:24;;;;;;;2.70;2.50;;;19.00;63.50;;;;;;5052730;28;20045;-66
2023/06/10 07:03:51;;;;;;;2.78;2.58;;;19.00;61.90;;;;;;5052388;28;20516;-66
2023/06/10 07:06:18;;;;;;;2.67;2.47;;;19.00;61.50;;;;;;5052597;28;20049;-66
2023/06/10 07:08:45;;;;;;;2.80;2.60;;;18.90;62.70;;;;;;5052842;28;20044;-67
2023/06/10 07:11:12;;;;;;;2.78;2.58;;;19.00;62.20;;;;;;5053220;28;20103;-66
2023/06/10 07:13:41;;;;;;;2.30;2.10;;;18.90;61.70;;;;;;5052936;28;20052;-66
2023/06/10 07:16:08;;;;;;;2.88;2.60;;;18.90;63.10;;;;;;5052839;28;20053;-66
2023/06/10 07:18:35;;;;;;;2.88;2.58;;;18.90;63.30;;;;;;5053205;28;20045;-66
2023/06/10 07:21:02;;;;;;;4.13;2.38;;;19.00;62.30;;;;;;5052002;28;20049;-66
2023/06/10 07:23:30;;;;;;;2.83;2.50;;;19.00;62.10;;;;;;5052836;28;20107;-66
2023/06/10 07:25:57;;;;;;;3.90;2.30;;;19.00;63.10;;;;;;5052789;28;20053;-66
2023/06/10 07:28:24;;;;;;;2.35;2.17;;;19.00;62.80;;;;;;5052288;28;20045;-66
2023/06/10 07:30:51;;;;;;;2.50;2.30;;;19.00;62.00;;;;;;5052708;28;20447;-66
2023/06/10 07:33:18;;;;;;;2.65;2.45;;;19.00;62.70;;;;;;5052773;28;20048;-66
2023/06/10 07:35:46;;;;;;;2.55;2.35;;;19.00;63.50;;;;;;5052403;28;20059;-66
2023/06/10 07:38:13;;;;;;;2.45;2.28;;;19.00;62.70;;;;;;5052156;28;20049;-66
2023/06/10 07:40:40;;;;;;;2.47;2.28;;;19.10;62.10;;;;;;5051393;28;20398;-66
2023/06/10 07:43:07;;;;;;;2.53;2.33;;;19.00;63.10;;;;;;5053027;28;20045;-66
2023/06/10 07:45:34;;;;;;;2.45;2.30;;;19.10;63.30;;;;;;5052584;28;20440;-66
2023/06/10 07:48:01;;;;;;;2.50;2.30;;;19.10;62.60;;;;;;5052645;28;20397;-66
2023/06/10 07:50:28;;;;;;;2.72;2.50;;;19.10;63.40;;;;;;5052642;28;20045;-66
2023/06/10 07:52:56;;;;;;;2.60;2.40;;;19.20;64.00;;;;;;5052383;28;20053;-66
2023/06/10 07:55:25;;;;;;;2.40;2.20;;;19.30;63.50;;;;;;5050960;28;20123;-67
2023/06/10 07:57:53;;;;;;;2.15;1.95;;;19.30;62.60;;;;;;5052558;28;20103;-67
2023/06/10 08:00:21;;;;;;;2.80;2.50;;;19.30;63.00;;;;;;5052417;28;20050;-67
2023/06/10 08:02:48;;;;;;;2.50;2.30;;;19.40;62.40;;;;;;5052225;28;20040;-68
2023/06/10 08:05:15;;;;;;;2.55;2.03;;;19.50;62.40;;;;;;5051864;28;20132;-67
2023/06/10 08:07:44;;;;;;;2.67;2.47;;;19.50;62.30;;;;;;5052490;28;20502;-66
2023/06/10 08:10:11;;;;;;;2.30;2.10;;;19.50;62.60;;;;;;5052304;28;20099;-67
2023/06/10 08:12:38;;;;;;;3.38;2.92;;;19.50;62.10;;;;;;5050672;28;20049;-67
2023/06/10 08:15:06;;;;;;;2.30;2.10;;;19.60;61.90;;;;;;5053519;28;20476;-67
2023/06/10 08:17:33;;;;;;;2.50;2.30;;;19.60;63.10;;;;;;5056479;28;20052;-67
2023/06/10 08:20:01;;;;;;;2.50;2.33;;;19.70;62.30;;;;;;5055602;28;20056;-67
2023/06/10 08:22:29;;;;;;;2.55;2.35;;;19.70;61.70;;;;;;5055183;28;20057;-67
2023/06/10 08:24:56;;;;;;;2.55;2.30;;;19.80;62.30;;;;;;5055702;28;20051;-67
2023/06/10 08:27:23;;;;;;;2.60;2.40;;;19.80;62.60;;;;;;5056345;28;20345;-67
2023/06/10 08:29:51;;;;;;;1.95;1.85;;;19.80;61.80;;;;;;5054499;28;20044;-67
2023/06/10 08:32:18;;;;;;;2.67;2.47;;;19.80;61.90;;;;;;5055988;28;20099;-67
2023/06/10 08:34:45;;;;;;;2.63;2.42;;;19.90;62.00;;;;;;5055274;28;20045;-67
2023/06/10 08:37:12;;;;;;;2.47;2.28;;;19.80;61.80;;;;;;5055391;28;20098;-67
2023/06/10 08:39:39;;;;;;;2.10;2.00;;;19.80;61.50;;;;;;5056020;28;20045;-67
2023/06/10 08:42:40;;;;;;;2.42;2.22;;;19.80;61.50;;;;;;5055865;28;20045;-67
2023/06/10 08:45:11;;;;;;;2.72;2.45;;;19.80;61.30;;;;;;5055563;28;20040;-67
2023/06/10 08:47:41;;;;;;;2.50;2.30;;;19.80;61.70;;;;;;5055633;28;20067;-67
2023/06/10 08:50:09;;;;;;;2.63;2.30;;;19.70;62.00;;;;;;5054875;28;20052;-67
2023/06/10 08:52:43;;;;;;;2.55;2.35;;;19.80;61.90;;;;;;5054268;28;20045;-67
2023/06/10 08:55:22;;;;;;;2.50;2.38;;;19.80;61.40;;;;;;5055354;28;20559;-67
2023/06/10 08:57:49;;;;;;;2.90;2.60;;;19.80;61.80;;;;;;5055832;28;20045;-67
2023/06/10 09:00:17;;;;;;;3.20;2.50;;;19.80;61.20;;;;;;5055316;28;20099;-67
2023/06/10 09:02:45;;;;;;;2.80;2.60;;;19.80;61.50;;;;;;5055096;28;20052;-67
2023/06/10 09:05:13;;;;;;;2.40;2.28;;;19.80;61.50;;;;;;5054946;28;20052;-67
2023/06/10 09:07:40;;;;;;;2.80;2.55;;;19.90;60.80;;;;;;5055279;28;20455;-67
2023/06/10 09:10:08;;;;;;;2.30;2.10;;;19.90;61.20;;;;;;5055269;28;20102;-67
2023/06/10 09:12:37;;;;;;;2.65;2.45;;;19.90;61.10;;;;;;5055251;28;20094;-67
2023/06/10 09:15:06;;;;;;;2.70;2.50;;;19.80;60.90;;;;;;5055290;28;20049;-67
2023/06/10 09:17:36;;;;;;;2.47;2.28;;;19.90;61.00;;;;;;5054847;28;20049;-67
2023/06/10 09:20:03;;;;;;;2.30;2.10;;;19.90;61.90;;;;;;5054928;28;20268;-67
2023/06/10 09:22:30;;;;;;;2.75;2.50;;;19.90;61.40;;;;;;5053714;28;20053;-68
2023/06/10 09:25:08;;;;;;;2.05;1.95;;;19.90;60.80;;;;;;5055091;28;20452;-67
2023/06/10 09:27:50;;;;;;;3.05;2.75;;;19.90;61.70;;;;;;5054393;28;20155;-67
2023/06/10 09:30:29;;;;;;;1.98;1.88;;;19.90;61.50;;;;;;5054752;28;20132;-68
2023/06/10 09:32:58;;;;;;;2.50;2.30;;;20.00;61.10;;;;;;5038252;28;20053;-67
2023/06/10 09:35:27;;;;;;;2.40;2.20;;;20.00;61.60;;;;;;5052069;28;20076;-67
2023/06/10 09:37:59;;;;;;;2.50;2.30;;;20.00;61.70;;;;;;5054771;28;20098;-67
2023/06/10 09:40:27;;;;;;;2.33;2.13;;;20.00;60.80;;;;;;5052520;28;20280;-67
2023/06/10 09:42:57;;;;;;;2.45;2.25;;;20.00;60.70;;;;;;5054704;28;20059;-67
2023/06/10 09:45:34;;;;;;;2.58;2.38;;;20.00;61.10;;;;;;5054308;28;20071;-67
2023/06/10 09:48:01;;;;;;;2.67;2.47;;;20.00;61.20;;;;;;5054542;28;20091;-67
2023/06/10 09:50:33;;;;;;;2.60;2.17;;;20.00;60.70;;;;;;5054409;28;20110;-68
2023/06/10 09:53:02;;;;;;;3.00;1.90;;;20.10;61.00;;;;;;5054307;28;20049;-67
2023/06/10 09:55:33;;;;;;;2.25;2.13;;;20.00;60.60;;;;;;5052746;28;20049;-67
2023/06/10 09:58:04;;;;;;;2.55;2.35;;;20.10;60.80;;;;;;5053607;28;20048;-68
2023/06/10 10:00:34;;;;;;;2.33;2.13;;;20.10;60.50;;;;;;5054023;28;20080;-68
2023/06/10 10:03:02;;;;;;;2.58;2.38;;;20.10;60.50;;;;;;5054397;28;20102;-68
2023/06/10 10:05:29;;;;;;;2.00;1.90;;;20.10;60.50;;;;;;5053954;28;20124;-67
2023/06/10 10:07:57;;;;;;;1.85;1.75;;;20.10;60.20;;;;;;5053443;28;20049;-67
2023/06/10 10:10:24;;;;;;;2.15;2.05;;;20.10;60.00;;;;;;5053987;28;20060;-68
2023/06/10 10:12:57;;;;;;;2.33;1.95;;;20.10;60.20;;;;;;5054206;28;20114;-67
2023/06/10 10:15:29;;;;;;;1.92;1.83;;;20.10;60.00;;;;;;5052964;28;20489;-68
2023/06/10 10:18:06;;;;;;;2.22;2.13;;;20.10;60.00;;;;;;5054437;28;20087;-68
2023/06/10 10:20:37;;;;;;;2.63;2.42;;;20.10;60.80;;;;;;5052741;28;20045;-67
2023/06/10 10:23:08;;;;;;;2.10;1.90;;;20.10;60.40;;;;;;5052284;28;20516;-67
2023/06/10 10:25:39;;;;;;;2.65;2.40;;;20.10;60.10;;;;;;5053607;28;20256;-67
2023/06/10 10:28:10;;;;;;;1.92;1.83;;;20.20;60.30;;;;;;5053666;28;20049;-67
2023/06/10 10:30:43;;;;;;;2.00;1.90;;;20.20;60.20;;;;;;5053952;28;20052;-67
2023/06/10 10:33:16;;;;;;;3.15;2.20;;;20.20;59.70;;;;;;5053949;28;20052;-67
2023/06/10 10:35:45;;;;;;;1.85;1.75;;;20.20;59.60;;;;;;5053368;28;20099;-67
2023/06/10 10:38:12;;;;;;;2.20;2.10;;;20.20;60.30;;;;;;5053854;28;20098;-67
2023/06/10 10:40:40;;;;;;;2.72;2.53;;;20.30;60.60;;;;;;5051976;28;20048;-67
2023/06/10 10:43:09;;;;;;;2.83;2.35;;;20.30;60.30;;;;;;5053588;28;20076;-67
2023/06/10 10:45:36;;;;;;;2.30;2.10;;;20.30;60.50;;;;;;5053091;28;20049;-67
2023/06/10 10:48:11;;;;;;;2.83;2.63;;;20.30;60.30;;;;;;5053173;28;20126;-67
2023/06/10 10:50:40;;;;;;;1.90;1.80;;;20.30;60.00;;;;;;5053423;28;20049;-68
2023/06/10 10:53:08;;;;;;;2.70;2.50;;;20.30;60.40;;;;;;5053753;28;20052;-67
2023/06/10 10:55:35;;;;;;;1.70;1.60;;;20.40;60.60;;;;;;5053190;28;20045;-67
2023/06/10 10:58:07;;;;;;;1.90;1.80;;;20.40;60.20;;;;;;5053041;28;20501;-67
2023/06/10 11:00:37;;;;;;;1.83;1.73;;;20.40;59.50;;;;;;5052902;28;20059;-68
2023/06/10 11:03:07;;;;;;;1.80;1.70;;;20.40;59.80;;;;;;5053349;28;20053;-67
2023/06/10 11:05:47;;;;;;;1.88;1.77;;;20.40;59.80;;;;;;5052866;28;20497;-67
2023/06/10 11:08:47;;;;;;;1.88;1.77;;;20.40;59.40;;;;;;5052068;28;20118;-67
2023/06/10 11:11:20;;;;;;;2.22;2.10;;;20.30;59.30;;;;;;5053052;28;20045;-67
2023/06/10 11:14:09;;;;;;;2.50;2.33;;;20.30;59.50;;;;;;5052685;28;21132;-67
2023/06/10 11:16:42;;;;;;;2.63;2.22;;;20.30;59.80;;;;;;5052746;28;20067;-67
2023/06/10 11:19:10;;;;;;;2.10;2.00;;;20.20;59.90;;;;;;5053045;28;20079;-67
2023/06/10 11:21:58;;;;;;;3.13;2.83;;;20.20;60.30;;;;;;5051291;28;20060;-67
2023/06/10 11:24:26;;;;;;;1.75;1.65;;;20.20;60.90;;;;;;5052748;28;20045;-68
2023/06/10 11:26:53;;;;;;;2.03;1.92;;;20.20;60.10;;;;;;5052837;28;20048;-67
2023/06/10 11:29:20;;;;;;;2.17;2.08;;;20.20;60.00;;;;;;5052907;28;20081;-67
2023/06/10 11:31:51;;;;;;;1.90;1.80;;;20.20;60.70;;;;;;5052339;28;20417;-67
2023/06/10 11:34:24;;;;;;;2.58;2.38;;;20.20;60.70;;;;;;5052751;28;20095;-67
2023/06/10 11:36:52;;;;;;;2.42;2.22;;;20.30;60.20;;;;;;5053110;28;20080;-67
2023/06/10 11:39:23;;;;;;;2.60;2.40;;;20.20;60.50;;;;;;5052790;28;20049;-67
2023/06/10 11:41:51;;;;;;;2.33;2.15;;;20.30;60.10;;;;;;5052235;28;20472;-67
2023/06/10 11:44:19;;;;;;;2.33;2.13;;;20.30;60.40;;;;;;5052722;28;20048;-67
2023/06/10 11:46:49;;;;;;;2.75;2.53;;;20.30;60.60;;;;;;5052184;28;20464;-67
2023/06/10 11:49:16;;;;;;;2.30;1.88;;;20.30;60.30;;;;;;5052656;28;20048;-67
2023/06/10 11:51:51;;;;;;;2.67;2.40;;;20.30;60.00;;;;;;5056403;28;20475;-67
2023/06/10 11:54:22;;;;;;;3.03;2.47;;;20.30;60.80;;;;;;5056269;28;20102;-67
2023/06/10 11:56:49;;;;;;;2.60;2.40;;;20.30;60.90;;;;;;5056355;28;20088;-67
2023/06/10 11:59:17;;;;;;;3.03;2.75;;;20.40;60.40;;;;;;5056488;28;20087;-67
2023/06/10 12:01:45;;;;;;;2.58;2.35;;;20.40;60.60;;;;;;5056311;28;20081;-67
2023/06/10 12:04:15;;;;;;;2.90;2.70;;;20.40;60.90;;;;;;5056323;28;20055;-67
2023/06/10 12:06:52;;;;;;;2.75;2.55;;;20.40;61.20;;;;;;5056521;28;20055;-67
2023/06/10 12:09:29;;;;;;;3.72;2.70;;;20.40;61.00;;;;;;5056800;28;20164;-67
2023/06/10 12:12:05;;;;;;;2.78;2.58;;;20.50;60.40;;;;;;5055084;28;20503;-67
2023/06/10 12:14:56;;;;;;;2.15;2.05;;;20.50;60.20;;;;;;5056107;28;20504;-68
2023/06/10 12:17:38;;;;;;;2.75;2.55;;;20.50;59.60;;;;;;5056167;28;20060;-68
2023/06/10 12:20:08;;;;;;;2.33;2.13;;;20.50;59.60;;;;;;5055816;28;20132;-67
2023/06/10 12:22:43;;;;;;;2.42;2.22;;;20.40;59.70;;;;;;5056007;28;20048;-68
2023/06/10 12:25:11;;;;;;;3.75;2.65;;;20.40;60.10;;;;;;5056157;28;20045;-67
2023/06/10 12:27:49;;;;;;;2.83;2.63;;;20.40;60.50;;;;;;5055129;28;20470;-67
2023/06/10 12:30:20;;;;;;;2.47;2.28;;;20.30;60.60;;;;;;5054620;28;20045;-67
2023/06/10 12:32:48;;;;;;;2.47;2.28;;;20.30;60.40;;;;;;5054968;28;20055;-67
2023/06/10 12:35:20;;;;;;;2.60;2.40;;;20.30;60.50;;;;;;5055907;28;20394;-67
2023/06/10 12:38:04;;;;;;;2.72;2.53;;;20.30;60.90;;;;;;5055673;28;20081;-67
2023/06/10 12:40:35;;;;;;;3.47;2.45;;;20.30;60.70;;;;;;5055793;28;20435;-67
2023/06/10 12:43:02;;;;;;;2.67;2.47;;;20.30;60.80;;;;;;5055781;28;20181;-67
2023/06/10 12:45:35;;;;;;;2.70;2.50;;;20.30;59.90;;;;;;5055662;28;20049;-67
2023/06/10 12:48:23;;;;;;;2.63;2.42;;;20.30;60.30;;;;;;5054549;28;20052;-67
2023/06/10 12:50:56;;;;;;;2.83;2.63;;;20.30;60.20;;;;;;5055116;28;20099;-67
2023/06/10 12:53:26;;;;;;;3.03;2.80;;;20.30;61.10;;;;;;5054955;28;20057;-67
2023/06/10 12:55:54;;;;;;;2.83;2.57;;;20.30;60.40;;;;;;5055507;28;20070;-67
2023/06/10 12:58:22;;;;;;;2.67;2.40;;;20.30;60.00;;;;;;5055991;28;20106;-67
2023/06/10 13:00:52;;;;;;;2.60;2.40;;;20.30;60.60;;;;;;5054840;28;20080;-67